Longview, WA

4:41 PM PDT on September 19, 2014 (GMT -0700)
Eufaula Heights | Change Station
CLOSE
Current Station
Personal Weather Station
Location: Longview, WA
Elevation: 740 ft
Nearby Weather Stations

Elev 740 ft 46.21 °N, 123.05 °W | Updated 1 second ago

Clear
Clear
74.3 °F
Feels Like 77 °F
N
1.0
Wind Variable Wind from SSW
Gusts 7.0 mph

Today
High -- | Low -- °F
--% Chance of Precip.
Yesterday
High -- | Low -- °F
Precip. -- in
6:55 AM 7:15 PM
Waning Crescent, 16% visible
Pressure 30.07 in
Visibility 10.0 miles
Clouds Clear
Heat Index 77 °F
Dew Point 60 °F
Humidity 62%
Rainfall 0.00 in
Snow Depth 0 in , 0 in , 0 in
UV 2 out of 12
Pollen 2.20 out of 12
Air Quality Not available.
Flu Activity Not available.
METAR KKLS 192335Z AUTO 27006KT 10SM CLR 26/14 A3007 RMK AO1

More Conditions Fewer Conditions

Pressure 30.07 in
Visibility 10.0 miles
Clouds Clear
Heat Index 77 °F
Dew Point 60 °F
Humidity 62%
Rainfall 0.00 in
Snow Depth 0 in , 0 in , 0 in
UV 2 out of 12
Pollen 2.20 out of 12
Air Quality Not available.
Flu Activity Not available.
METAR KKLS 192335Z AUTO 27006KT 10SM CLR 26/14 A3007 RMK AO1

More Conditions Fewer Conditions

10-Day Weather Forecast

Almanac

Astronomy

Sep. 19, 2014 Rise Set
Actual Time 6:55 AM PDT 7:15 PM PDT
Civil Twilight 6:25 AM PDT 7:45 PM PDT
Nautical Twilight 5:50 AM PDT 8:20 PM PDT
Astronomical Twilight 5:13 AM PDT 8:57 PM PDT
Moon 2:34 AM PDT 4:57 PM PDT
Length of Visible Light 13h 20m
Length of Day
12h 20m
Tomorrow will be 3m 14s shorter.
Waning Crescent, 16% of the Moon is Illuminated
Today
Waning Crescent
Sep 24
New
Oct 1
First Quarter
Oct 8
Full
Oct 15
Last Quarter

Today's Extremes

State Highs State Lows

Community

WunderPhotos

Upload Photos

1,754,730 photos uploaded!

Nearby

Snow Depth

Station Depth Elevation
Elbow Lake 0 in 3200 ft
Stevens Pass 0 in 4070 ft
Blewett Pass 0 in 4270 ft
Grouse Camp 0 in 5380 ft
Wells Creek 0 in 4200 ft

Earthquake Activity

City Distance Mag. Time & Date
Seabeck, Washington 95 miles 4.0 3:06 AM PDT
2014-09-17
Minimum magnitude displayed is 2.5.

Coastal Water Temperatures

Place Temperature
Astoria, OR 64.9 °F
Westport, WA 60.1 °F

Nearby Weather Stations